createdAt,value
2022-11-29T00:01:48.697Z,30.09
2022-11-29T00:04:20.024Z,29.97
2022-11-29T00:06:51.361Z,29.74
2022-11-29T00:09:22.624Z,30.17
2022-11-29T00:12:13.983Z,30.07
2022-11-29T00:14:45.482Z,30.19
2022-11-29T00:17:16.987Z,30.16
2022-11-29T00:19:48.360Z,30.15
2022-11-29T00:22:20.721Z,30.15
2022-11-29T00:24:52.230Z,30.16
2022-11-29T00:27:23.503Z,29.96
2022-11-29T00:29:55.032Z,30.21
2022-11-29T00:32:26.509Z,30.22
2022-11-29T00:34:59.646Z,30.21
2022-11-29T00:37:31.239Z,30.26
2022-11-29T00:40:02.801Z,30.26
2022-11-29T00:42:34.585Z,30.33
2022-11-29T00:45:06.178Z,30.22
2022-11-29T00:47:37.521Z,30.35
2022-11-29T00:50:09.737Z,30.43
2022-11-29T00:52:41.592Z,30.45
2022-11-29T00:55:13.037Z,30.46
2022-11-29T00:57:44.603Z,30.39
2022-11-29T01:00:16.589Z,30.52
2022-11-29T01:02:47.435Z,30.22
2022-11-29T01:05:19.206Z,30.55
2022-11-29T01:07:50.721Z,30.56
2022-11-29T01:10:21.846Z,30.28
2022-11-29T01:12:53.100Z,30.46
2022-11-29T01:15:24.761Z,30.61
2022-11-29T01:17:56.568Z,30.65
2022-11-29T01:20:28.223Z,30.64
2022-11-29T01:23:01.161Z,30.69
2022-11-29T01:25:33.626Z,30.37
2022-11-29T01:28:04.988Z,30.58
2022-11-29T01:30:36.444Z,30.56
2022-11-29T01:33:08.619Z,30.71
2022-11-29T01:35:39.996Z,30.56
2022-11-29T01:38:11.275Z,30.75
2022-11-29T01:40:42.949Z,30.76
2022-11-29T01:43:20.842Z,30.35
2022-11-29T01:45:52.984Z,30.81
2022-11-29T01:48:30.734Z,29.95
2022-11-29T01:51:03.534Z,30.31
2022-11-29T01:53:35.634Z,30.85
2022-11-29T01:56:07.191Z,30.54
2022-11-29T01:58:38.651Z,30.82
2022-11-29T02:01:10.258Z,30.66
2022-11-29T02:03:41.767Z,30.90
2022-11-29T02:06:13.351Z,30.91
2022-11-29T02:08:46.001Z,30.51
2022-11-29T02:11:44.464Z,30.89
2022-11-29T02:14:52.108Z,30.91
2022-11-29T02:17:35.421Z,31.00
2022-11-29T02:20:45.445Z,30.94
2022-11-29T02:23:31.933Z,31.02
2022-11-29T02:26:44.302Z,30.95
2022-11-29T02:29:27.266Z,30.75
2022-11-29T02:31:57.938Z,30.73
2022-11-29T02:34:50.664Z,31.01
2022-11-29T02:37:38.160Z,31.13
2022-11-29T02:40:37.497Z,30.96
2022-11-29T02:43:42.352Z,30.90
2022-11-29T02:46:16.650Z,31.21
2022-11-29T02:49:10.315Z,31.28
2022-11-29T02:51:58.874Z,31.30
2022-11-29T02:54:44.271Z,31.32
2022-11-29T02:57:42.306Z,31.28
2022-11-29T03:00:23.947Z,31.34
2022-11-29T03:03:13.931Z,31.29
2022-11-29T03:06:01.153Z,31.39
2022-11-29T03:08:45.688Z,31.31
2022-11-29T03:11:57.102Z,30.88
2022-11-29T03:14:50.685Z,30.62
2022-11-29T03:17:28.157Z,31.54
2022-11-29T03:20:35.992Z,31.48
2022-11-29T03:23:25.672Z,31.60
2022-11-29T03:26:06.341Z,31.59
2022-11-29T03:28:47.996Z,31.63
2022-11-29T03:31:49.916Z,31.51
2022-11-29T03:34:55.765Z,31.44
2022-11-29T03:37:52.262Z,31.32
2022-11-29T03:41:01.647Z,31.66
2022-11-29T03:43:44.820Z,31.76
2022-11-29T03:46:53.087Z,31.79
2022-11-29T03:49:40.910Z,31.82
2022-11-29T03:52:18.401Z,31.86
2022-11-29T03:54:59.308Z,31.87
2022-11-29T03:58:03.760Z,31.81
2022-11-29T04:00:50.014Z,31.62
2022-11-29T04:03:50.336Z,31.85
2022-11-29T04:06:39.873Z,31.84
2022-11-29T04:09:23.290Z,31.87
2022-11-29T04:12:24.523Z,31.37
2022-11-29T04:15:49.321Z,31.82
2022-11-29T04:18:58.228Z,31.75
2022-11-29T04:21:47.801Z,31.94
2022-11-29T04:25:03.626Z,31.82
2022-11-29T04:28:12.805Z,31.74
2022-11-29T04:31:00.699Z,31.99
2022-11-29T04:33:53.929Z,31.93
2022-11-29T04:36:52.847Z,31.99
2022-11-29T04:39:59.269Z,31.86
2022-11-29T04:42:48.896Z,31.98
2022-11-29T04:45:47.003Z,31.08
2022-11-29T04:48:54.426Z,31.24
2022-11-29T04:51:45.472Z,31.94
2022-11-29T04:54:25.733Z,32.12
2022-11-29T04:57:20.572Z,32.12
2022-11-29T05:00:33.557Z,32.20
2022-11-29T05:03:17.326Z,32.19
2022-11-29T05:05:53.565Z,32.24
2022-11-29T05:09:12.965Z,32.02
2022-11-29T05:11:55.256Z,31.71
2022-11-29T05:14:57.558Z,32.22
2022-11-29T05:17:33.056Z,32.28
2022-11-29T05:20:25.127Z,32.22
2022-11-29T05:23:14.916Z,32.25
2022-11-29T05:26:07.138Z,32.22
2022-11-29T05:29:09.247Z,32.28
2022-11-29T05:32:06.530Z,32.12
2022-11-29T05:34:40.769Z,32.37
2022-11-29T05:37:30.320Z,32.34
2022-11-29T05:40:10.727Z,32.42
2022-11-29T05:43:05.972Z,31.94
2022-11-29T05:45:58.611Z,32.39
2022-11-29T05:48:46.676Z,32.50
2022-11-29T05:51:31.842Z,32.00
2022-11-29T05:54:22.345Z,32.05
2022-11-29T05:56:56.468Z,32.57
2022-11-29T05:59:31.646Z,32.53
2022-11-29T06:02:12.659Z,32.59
2022-11-29T06:05:02.692Z,32.04
2022-11-29T06:07:36.723Z,32.65
2022-11-29T06:10:19.237Z,32.65
2022-11-29T06:13:26.457Z,32.37
2022-11-29T06:16:25.350Z,32.68
2022-11-29T06:19:21.004Z,32.60
2022-11-29T06:21:58.094Z,32.71
2022-11-29T06:25:02.911Z,32.76
2022-11-29T06:28:18.746Z,32.65
2022-11-29T06:31:03.641Z,32.79
2022-11-29T06:33:40.904Z,32.80
2022-11-29T06:36:17.311Z,32.84
2022-11-29T06:38:49.117Z,32.51
2022-11-29T06:41:24.293Z,32.58
2022-11-29T06:43:55.756Z,32.86
2022-11-29T06:46:38.363Z,32.87
2022-11-29T06:49:34.449Z,32.52
2022-11-29T06:52:20.906Z,32.93
2022-11-29T06:55:06.296Z,32.92
2022-11-29T06:57:55.546Z,33.02
2022-11-29T07:00:31.554Z,33.06
2022-11-29T07:03:03.096Z,33.07
2022-11-29T07:05:36.985Z,32.99
2022-11-29T07:08:16.924Z,33.12
2022-11-29T07:10:51.483Z,32.74
2022-11-29T07:13:23.854Z,33.13
2022-11-29T07:16:04.981Z,33.17
2022-11-29T07:18:54.657Z,32.61
2022-11-29T07:21:55.783Z,33.15
2022-11-29T07:24:57.551Z,33.12
2022-11-29T07:27:29.445Z,33.27
2022-11-29T07:30:06.773Z,33.27
2022-11-29T07:33:00.053Z,33.26
2022-11-29T07:35:51.362Z,33.30
2022-11-29T07:38:48.159Z,32.92
2022-11-29T07:41:39.813Z,33.36
2022-11-29T07:44:28.669Z,33.29
2022-11-29T07:47:00.171Z,33.41
2022-11-29T07:49:31.787Z,33.35
2022-11-29T07:52:03.629Z,33.44
2022-11-29T07:54:35.107Z,33.38
2022-11-29T07:57:06.418Z,33.48
2022-11-29T07:59:37.769Z,33.42
2022-11-29T08:02:11.793Z,33.48
2022-11-29T08:04:48.239Z,33.54
2022-11-29T08:07:19.932Z,33.47
2022-11-29T08:09:51.474Z,33.50
2022-11-29T08:12:23.747Z,33.59
2022-11-29T08:14:55.242Z,33.56
2022-11-29T08:17:27.444Z,33.61
2022-11-29T08:20:02.589Z,33.33
2022-11-29T08:22:35.371Z,33.57
2022-11-29T08:25:08.676Z,33.62
2022-11-29T08:27:41.079Z,33.63
2022-11-29T08:30:12.633Z,33.66
2022-11-29T08:32:48.452Z,33.67
2022-11-29T08:35:25.192Z,33.22
2022-11-29T08:37:58.261Z,33.70
2022-11-29T08:40:29.749Z,33.68
2022-11-29T08:43:01.532Z,33.73
2022-11-29T08:45:32.961Z,33.71
2022-11-29T08:48:07.761Z,33.75
2022-11-29T08:50:39.793Z,33.76
2022-11-29T08:53:29.446Z,33.73
2022-11-29T08:56:12.021Z,33.73
2022-11-29T08:58:53.573Z,33.71
2022-11-29T09:01:24.969Z,33.76
2022-11-29T09:04:06.541Z,33.77
2022-11-29T09:06:46.068Z,33.27
2022-11-29T09:09:18.707Z,33.78
2022-11-29T09:11:50.151Z,33.80
2022-11-29T09:14:23.645Z,33.79
2022-11-29T09:16:55.322Z,33.70
2022-11-29T09:19:26.940Z,33.54
2022-11-29T09:21:58.683Z,33.41
2022-11-29T09:24:30.687Z,33.25
2022-11-29T09:27:03.068Z,33.26
2022-11-29T09:29:34.771Z,33.22
2022-11-29T09:32:06.663Z,33.13
2022-11-29T09:34:38.684Z,33.07
2022-11-29T09:37:10.257Z,33.01
2022-11-29T09:39:42.992Z,33.03
2022-11-29T09:42:43.066Z,32.74
2022-11-29T09:45:22.596Z,33.00
2022-11-29T09:48:30.425Z,32.77
2022-11-29T09:51:10.780Z,32.89
2022-11-29T09:54:21.704Z,32.57
2022-11-29T09:56:55.995Z,32.45
2022-11-29T09:59:37.923Z,32.82
2022-11-29T10:02:11.559Z,32.61
2022-11-29T10:04:48.456Z,32.65
2022-11-29T10:07:55.903Z,32.69
2022-11-29T10:10:47.165Z,32.74
2022-11-29T10:13:37.844Z,32.70
2022-11-29T10:16:24.561Z,32.76
2022-11-29T10:19:09.444Z,32.43
2022-11-29T10:21:47.278Z,32.21
2022-11-29T10:24:23.687Z,32.85
2022-11-29T10:26:55.432Z,32.87
2022-11-29T10:29:26.956Z,32.80
2022-11-29T10:32:01.929Z,32.76
2022-11-29T10:34:34.477Z,33.03
2022-11-29T10:37:06.651Z,33.04
2022-11-29T10:39:51.593Z,33.07
2022-11-29T10:42:45.240Z,33.07
2022-11-29T10:45:35.990Z,33.10
2022-11-29T10:48:13.450Z,32.72
2022-11-29T10:50:47.012Z,33.15
2022-11-29T10:53:21.979Z,32.66
2022-11-29T10:56:03.974Z,32.72
2022-11-29T10:58:35.574Z,33.10
2022-11-29T11:01:10.679Z,33.10
2022-11-29T11:03:53.142Z,32.83
2022-11-29T11:06:44.680Z,33.11
2022-11-29T11:09:31.527Z,33.08
2022-11-29T11:12:10.228Z,33.10
2022-11-29T11:14:42.541Z,33.09
2022-11-29T11:17:21.528Z,33.09
2022-11-29T11:20:21.773Z,32.93
2022-11-29T11:23:27.228Z,32.88
2022-11-29T11:26:05.451Z,32.67
2022-11-29T11:29:04.167Z,32.92
2022-11-29T11:31:39.863Z,33.07
2022-11-29T11:34:27.892Z,33.00
2022-11-29T11:37:22.235Z,32.96
2022-11-29T11:39:57.508Z,32.57
2022-11-29T11:42:41.073Z,33.04
2022-11-29T11:45:12.454Z,33.04
2022-11-29T11:47:54.446Z,32.99
2022-11-29T11:50:33.969Z,32.70
2022-11-29T11:53:28.134Z,32.94
2022-11-29T11:56:12.389Z,32.90
2022-11-29T11:58:53.981Z,32.96
2022-11-29T12:01:48.231Z,32.91
2022-11-29T12:04:40.142Z,32.90
2022-11-29T12:10:35.344Z,32.53
2022-11-29T12:13:12.124Z,32.84
2022-11-29T12:15:50.877Z,32.66
2022-11-29T12:18:49.825Z,32.54
2022-11-29T12:21:29.725Z,32.41
2022-11-29T12:24:16.245Z,32.31
2022-11-29T12:26:58.838Z,32.08
2022-11-29T12:29:34.801Z,31.45
2022-11-29T12:32:33.818Z,31.98
2022-11-29T12:35:39.794Z,31.83
2022-11-29T12:38:35.271Z,31.73
2022-11-29T12:41:27.682Z,31.67
2022-11-29T12:44:19.721Z,31.47
2022-11-29T12:50:06.593Z,31.36
2022-11-29T12:53:22.654Z,31.22
2022-11-29T12:56:38.462Z,31.09
2022-11-29T12:59:25.777Z,31.06
2022-11-29T13:02:05.180Z,30.62
2022-11-29T13:04:40.647Z,30.99
2022-11-29T13:07:45.319Z,30.48
2022-11-29T13:10:25.879Z,31.00
2022-11-29T13:13:20.225Z,30.89
2022-11-29T13:15:55.142Z,31.00
2022-11-29T13:18:38.212Z,31.01
2022-11-29T13:21:36.395Z,30.86
2022-11-29T13:24:42.680Z,30.89
2022-11-29T13:27:28.520Z,30.79
2022-11-29T13:30:02.785Z,30.60
2022-11-29T13:32:42.180Z,30.73
2022-11-29T13:35:37.692Z,30.81
2022-11-29T13:38:39.350Z,30.34
2022-11-29T13:41:41.245Z,30.72
2022-11-29T13:44:28.781Z,30.44
2022-11-29T13:47:13.390Z,30.12
2022-11-29T13:50:04.128Z,30.20
2022-11-29T13:52:49.679Z,30.53
2022-11-29T13:55:31.234Z,30.49
2022-11-29T13:58:16.760Z,30.41
2022-11-29T14:00:48.865Z,30.60
2022-11-29T14:03:27.733Z,30.59
2022-11-29T14:06:05.552Z,30.58
2022-11-29T14:09:20.661Z,30.56
2022-11-29T14:12:03.152Z,30.51
2022-11-29T14:14:51.211Z,30.11
2022-11-29T14:17:53.627Z,30.34
2022-11-29T14:20:30.667Z,30.46
2022-11-29T14:23:14.550Z,30.43
2022-11-29T14:26:10.850Z,30.29
2022-11-29T14:28:47.013Z,30.28
2022-11-29T14:31:52.661Z,30.22
2022-11-29T14:34:36.038Z,30.17
2022-11-29T14:37:25.992Z,30.15
2022-11-29T14:40:04.307Z,30.18
2022-11-29T14:42:37.479Z,30.13
2022-11-29T14:45:32.004Z,29.67
2022-11-29T14:48:05.990Z,30.03
2022-11-29T14:50:42.146Z,30.05
2022-11-29T14:53:37.637Z,29.44
2022-11-29T14:56:35.117Z,29.98
2022-11-29T14:59:45.009Z,29.94
2022-11-29T15:02:53.482Z,29.91
2022-11-29T15:05:48.575Z,29.89
2022-11-29T15:08:30.574Z,29.93
2022-11-29T15:11:24.706Z,29.91
2022-11-29T15:14:48.454Z,29.73
2022-11-29T15:17:36.092Z,29.33
2022-11-29T15:20:27.975Z,29.87
2022-11-29T15:23:04.559Z,29.43
2022-11-29T15:25:38.692Z,29.74
2022-11-29T15:28:23.685Z,29.23
2022-11-29T15:31:11.477Z,29.56
2022-11-29T15:33:46.351Z,29.19
2022-11-29T15:36:24.838Z,29.73
2022-11-29T15:39:01.284Z,28.81
2022-11-29T15:41:37.536Z,29.71
2022-11-29T15:44:22.254Z,29.69
2022-11-29T15:46:56.077Z,29.68
2022-11-29T15:49:32.658Z,29.69
2022-11-29T15:52:20.079Z,29.68
2022-11-29T15:54:59.340Z,29.61
2022-11-29T15:57:35.345Z,29.68
2022-11-29T16:00:30.452Z,29.60
2022-11-29T16:03:06.189Z,29.68
2022-11-29T16:05:41.736Z,29.13
2022-11-29T16:08:21.735Z,29.54
2022-11-29T16:10:55.431Z,29.43
2022-11-29T16:13:39.145Z,29.36
2022-11-29T16:16:24.982Z,29.47
2022-11-29T16:19:10.275Z,29.51
2022-11-29T16:21:46.633Z,29.49
2022-11-29T16:24:25.808Z,29.48
2022-11-29T16:26:59.297Z,29.03
2022-11-29T16:29:39.724Z,28.86
2022-11-29T16:32:27.622Z,28.85
2022-11-29T16:35:15.460Z,29.15
2022-11-29T16:37:49.405Z,29.40
2022-11-29T16:40:29.881Z,28.88
2022-11-29T16:43:08.519Z,29.45
2022-11-29T16:45:43.763Z,28.89
2022-11-29T16:48:28.793Z,29.44
2022-11-29T16:51:16.639Z,29.46
2022-11-29T16:53:50.478Z,28.62
2022-11-29T16:56:30.412Z,29.49
2022-11-29T16:59:24.777Z,29.37
2022-11-29T17:02:00.286Z,29.03
2022-11-29T17:04:33.319Z,29.48
2022-11-29T17:07:14.675Z,29.05
2022-11-29T17:09:48.179Z,29.34
2022-11-29T17:12:21.495Z,29.45
2022-11-29T17:14:54.415Z,29.33
2022-11-29T17:17:27.730Z,29.36
2022-11-29T17:20:00.639Z,29.40
2022-11-29T17:22:33.552Z,29.47
2022-11-29T17:25:06.639Z,29.48
2022-11-29T17:27:40.111Z,29.46
2022-11-29T17:30:13.526Z,29.50
2022-11-29T17:32:47.142Z,29.56
2022-11-29T17:35:20.481Z,29.53
2022-11-29T17:37:53.406Z,29.03
2022-11-29T17:40:27.364Z,29.53
2022-11-29T17:43:00.232Z,29.54
2022-11-29T17:45:33.418Z,29.49
2022-11-29T17:48:06.851Z,29.48
2022-11-29T17:50:45.601Z,29.51
2022-11-29T17:53:18.850Z,29.49
2022-11-29T17:55:51.713Z,29.48
2022-11-29T17:58:24.823Z,29.40
2022-11-29T18:01:04.865Z,29.10
2022-11-29T18:03:42.273Z,29.49
2022-11-29T18:06:20.244Z,29.06
2022-11-29T18:08:56.452Z,29.45
2022-11-29T18:11:42.932Z,29.43
2022-11-29T18:14:25.762Z,29.47
2022-11-29T18:16:58.904Z,29.34
2022-11-29T18:19:33.509Z,29.32
2022-11-29T18:22:06.909Z,29.42
2022-11-29T18:24:39.772Z,29.43
2022-11-29T18:27:12.885Z,29.44
2022-11-29T18:29:45.968Z,29.42
2022-11-29T18:32:19.018Z,29.35
2022-11-29T18:34:52.278Z,29.42
2022-11-29T18:37:54.428Z,29.32
2022-11-29T18:40:19.116Z,29.38
2022-11-29T18:42:53.118Z,29.37
2022-11-29T18:45:26.013Z,29.36
2022-11-29T18:47:59.071Z,29.37
2022-11-29T18:50:33.147Z,29.40
2022-11-29T18:53:06.222Z,29.07
2022-11-29T18:55:39.179Z,29.26
2022-11-29T18:58:12.176Z,29.33
2022-11-29T19:00:46.447Z,29.37
2022-11-29T19:03:19.407Z,29.39
2022-11-29T19:05:56.475Z,29.37
2022-11-29T19:08:29.345Z,29.34
2022-11-29T19:11:06.229Z,29.34
2022-11-29T19:13:39.516Z,29.35
2022-11-29T19:16:17.756Z,29.28
2022-11-29T19:18:54.777Z,28.92
2022-11-29T19:21:29.796Z,28.85
2022-11-29T19:24:05.479Z,28.85
2022-11-29T19:26:39.106Z,29.36
2022-11-29T19:29:12.009Z,29.26
2022-11-29T19:31:45.073Z,29.33
2022-11-29T19:34:18.172Z,29.31
2022-11-29T19:36:51.071Z,29.31
2022-11-29T19:39:24.189Z,29.11
2022-11-29T19:41:57.126Z,28.75
2022-11-29T19:44:31.404Z,29.27
2022-11-29T19:47:06.487Z,29.26
2022-11-29T19:49:38.432Z,29.27
2022-11-29T19:52:09.718Z,29.24
2022-11-29T19:54:41.904Z,29.25
2022-11-29T19:57:13.335Z,29.25
2022-11-29T19:59:45.227Z,29.24
2022-11-29T20:02:17.569Z,29.06
2022-11-29T20:04:51.128Z,29.17
2022-11-29T20:07:22.485Z,29.17
2022-11-29T20:09:53.794Z,29.13
2022-11-29T20:12:25.089Z,29.19
2022-11-29T20:14:56.412Z,29.10
2022-11-29T20:17:27.848Z,29.15
2022-11-29T20:19:59.186Z,29.17
2022-11-29T20:22:30.631Z,28.82
2022-11-29T20:25:02.348Z,29.14
2022-11-29T20:27:33.734Z,29.10
2022-11-29T20:30:05.430Z,29.15
2022-11-29T20:32:37.717Z,29.03
2022-11-29T20:35:09.583Z,29.13
2022-11-29T20:38:10.164Z,28.93
2022-11-29T20:41:02.423Z,28.48
2022-11-29T20:43:56.594Z,29.07
2022-11-29T20:46:28.573Z,29.12
2022-11-29T20:49:06.024Z,29.11
2022-11-29T20:51:56.505Z,28.99
2022-11-29T20:54:27.986Z,29.08
2022-11-29T20:56:59.382Z,29.07
2022-11-29T20:59:31.961Z,29.11
2022-11-29T21:02:04.052Z,29.08
2022-11-29T21:04:35.430Z,29.06
2022-11-29T21:07:06.805Z,29.02
2022-11-29T21:09:38.051Z,29.04
2022-11-29T21:12:09.890Z,29.04
2022-11-29T21:14:41.498Z,29.03
2022-11-29T21:17:13.257Z,29.02
2022-11-29T21:19:45.130Z,28.99
2022-11-29T21:22:29.183Z,28.83
2022-11-29T21:25:31.795Z,28.43
2022-11-29T21:28:03.463Z,28.97
2022-11-29T21:30:35.423Z,28.58
2022-11-29T21:33:06.981Z,29.03
2022-11-29T21:35:42.224Z,28.59
2022-11-29T21:38:19.870Z,28.43
2022-11-29T21:40:51.172Z,28.97
2022-11-29T21:43:28.754Z,28.64
2022-11-29T21:46:14.380Z,28.88
2022-11-29T21:48:46.106Z,28.84
2022-11-29T21:51:17.493Z,28.92
2022-11-29T21:53:48.722Z,28.96
2022-11-29T21:56:20.121Z,28.95
2022-11-29T21:58:51.489Z,28.95
2022-11-29T22:01:23.506Z,28.93
2022-11-29T22:03:56.647Z,28.90
2022-11-29T22:06:29.743Z,28.88
2022-11-29T22:09:01.460Z,28.81
2022-11-29T22:11:33.295Z,28.84
2022-11-29T22:14:15.953Z,28.86
2022-11-29T22:16:52.673Z,28.50
2022-11-29T22:19:26.911Z,28.31
2022-11-29T22:22:01.394Z,28.46
2022-11-29T22:24:36.193Z,28.82
2022-11-29T22:27:07.514Z,28.73
2022-11-29T22:29:38.976Z,28.78
2022-11-29T22:32:10.272Z,28.77
2022-11-29T22:34:41.592Z,28.77
2022-11-29T22:37:14.266Z,28.71
2022-11-29T22:39:44.975Z,28.47
2022-11-29T22:42:16.908Z,28.71
2022-11-29T22:44:48.573Z,28.64
2022-11-29T22:47:20.190Z,28.72
2022-11-29T22:49:51.677Z,28.68
2022-11-29T22:52:23.623Z,28.35
2022-11-29T22:54:57.617Z,28.69
2022-11-29T22:57:31.276Z,28.66
2022-11-29T23:00:02.587Z,28.52
2022-11-29T23:02:34.199Z,28.74
2022-11-29T23:05:06.032Z,28.77
2022-11-29T23:07:37.655Z,28.82
2022-11-29T23:10:09.784Z,28.89
2022-11-29T23:12:40.583Z,28.68
2022-11-29T23:15:12.198Z,28.99
2022-11-29T23:17:43.720Z,29.07
2022-11-29T23:20:15.665Z,29.14
2022-11-29T23:22:47.102Z,29.20
2022-11-29T23:25:18.486Z,29.23
2022-11-29T23:27:52.125Z,29.28
2022-11-29T23:30:23.571Z,29.32
2022-11-29T23:32:55.132Z,29.24
2022-11-29T23:35:26.486Z,29.46
2022-11-29T23:37:57.813Z,29.22
2022-11-29T23:40:29.412Z,29.60
2022-11-29T23:43:02.125Z,29.68
2022-11-29T23:45:33.626Z,29.69
2022-11-29T23:48:05.220Z,29.70
2022-11-29T23:50:37.040Z,29.83
2022-11-29T23:53:08.741Z,29.71
2022-11-29T23:55:40.021Z,29.67
2022-11-29T23:58:12.718Z,29.66
